createdAt,value
2023-05-08T00:00:06.679Z,97472.44
2023-05-08T00:02:34.425Z,97476.41
2023-05-08T00:05:02.257Z,97465.13
2023-05-08T00:07:30.269Z,97473.53
2023-05-08T00:09:57.957Z,97472.13
2023-05-08T00:12:25.673Z,97470.81
2023-05-08T00:14:53.364Z,97473.78
2023-05-08T00:17:21.111Z,97463.16
2023-05-08T00:19:48.910Z,97468.69
2023-05-08T00:22:16.695Z,97474.34
2023-05-08T00:24:44.381Z,97471.53
2023-05-08T00:27:12.607Z,97468.75
2023-05-08T00:29:40.393Z,97476.31
2023-05-08T00:32:08.271Z,97487.94
2023-05-08T00:34:36.354Z,97485.63
2023-05-08T00:37:04.146Z,97481.91
2023-05-08T00:39:32.061Z,97485.69
2023-05-08T00:42:00.201Z,97492.28
2023-05-08T00:44:28.201Z,97494.91
2023-05-08T00:46:55.906Z,97485.00
2023-05-08T00:49:23.777Z,97491.38
2023-05-08T00:51:52.808Z,97488.47
2023-05-08T00:54:20.657Z,97493.00
2023-05-08T00:56:50.525Z,97499.19
2023-05-08T00:59:18.246Z,97499.16
2023-05-08T01:01:47.740Z,97491.44
2023-05-08T01:04:16.110Z,97496.03
2023-05-08T01:06:43.872Z,97488.25
2023-05-08T01:09:11.847Z,97484.94
2023-05-08T01:11:51.431Z,97484.63
2023-05-08T01:14:22.643Z,97493.16
2023-05-08T01:17:11.863Z,97490.22
2023-05-08T01:19:43.096Z,97498.81
2023-05-08T01:22:32.690Z,97495.44
2023-05-08T01:25:21.632Z,97495.56
2023-05-08T01:27:52.394Z,97486.66
2023-05-08T01:30:46.278Z,97485.78
2023-05-08T01:33:18.706Z,97489.06
2023-05-08T01:35:58.939Z,97484.34
2023-05-08T01:38:34.107Z,97487.00
2023-05-08T01:41:14.430Z,97475.53
2023-05-08T01:43:54.238Z,97475.41
2023-05-08T01:46:27.231Z,97479.22
2023-05-08T01:49:09.404Z,97487.94
2023-05-08T01:51:45.023Z,97484.78
2023-05-08T01:54:16.028Z,97483.88
2023-05-08T01:56:44.765Z,97485.41
2023-05-08T01:59:14.114Z,97479.56
2023-05-08T02:01:44.671Z,97486.00
2023-05-08T02:04:12.713Z,97479.94
2023-05-08T02:06:40.492Z,97482.31
2023-05-08T02:09:08.636Z,97476.56
2023-05-08T02:11:40.024Z,97485.09
2023-05-08T02:14:08.589Z,97478.38
2023-05-08T02:16:36.346Z,97481.53
2023-05-08T02:19:04.096Z,97488.59
2023-05-08T02:21:31.814Z,97484.22
2023-05-08T02:23:59.519Z,97491.75
2023-05-08T02:26:27.318Z,97488.94
2023-05-08T02:28:55.682Z,97490.41
2023-05-08T02:31:23.478Z,97485.47
2023-05-08T02:33:51.404Z,97487.16
2023-05-08T02:36:19.613Z,97485.44
2023-05-08T02:38:49.113Z,97485.56
2023-05-08T02:41:17.656Z,97489.25
2023-05-08T02:43:45.836Z,97485.88
2023-05-08T02:46:21.310Z,97498.50
2023-05-08T02:49:01.509Z,97499.50
2023-05-08T02:51:31.058Z,97493.19
2023-05-08T02:53:59.780Z,97497.84
2023-05-08T02:56:32.980Z,97487.38
2023-05-08T02:59:27.289Z,97496.25
2023-05-08T03:02:09.683Z,97493.09
2023-05-08T03:04:48.720Z,97491.63
2023-05-08T03:07:16.545Z,97495.91
2023-05-08T03:09:45.769Z,97498.75
2023-05-08T03:12:22.299Z,97497.38
2023-05-08T03:14:57.328Z,97500.63
2023-05-08T03:17:25.176Z,97501.97
2023-05-08T03:19:55.156Z,97495.09
2023-05-08T03:22:22.877Z,97494.56
2023-05-08T03:24:51.410Z,97493.88
2023-05-08T03:27:20.450Z,97501.31
2023-05-08T03:29:48.243Z,97507.03
2023-05-08T03:32:16.656Z,97498.41
2023-05-08T03:34:44.462Z,97499.97
2023-05-08T03:37:12.347Z,97498.94
2023-05-08T03:39:40.079Z,97509.00
2023-05-08T03:42:07.853Z,97505.00
2023-05-08T03:44:35.560Z,97510.25
2023-05-08T03:47:03.550Z,97506.25
2023-05-08T03:49:31.916Z,97504.69
2023-05-08T03:51:59.747Z,97505.16
2023-05-08T03:54:28.649Z,97507.50
2023-05-08T03:56:56.954Z,97504.56
2023-05-08T03:59:30.303Z,97513.44
2023-05-08T04:02:10.264Z,97503.78
2023-05-08T04:04:41.960Z,97505.69
2023-05-08T04:07:42.941Z,97506.47
2023-05-08T04:10:16.395Z,97507.16
2023-05-08T04:13:17.074Z,97511.09
2023-05-08T04:15:52.496Z,97517.06
2023-05-08T04:18:44.075Z,97510.06
2023-05-08T04:21:11.887Z,97512.94
2023-05-08T04:23:40.408Z,97512.47
2023-05-08T04:26:08.714Z,97514.16
2023-05-08T04:28:36.718Z,97516.81
2023-05-08T04:31:05.015Z,97517.75
2023-05-08T04:33:34.844Z,97515.22
2023-05-08T04:36:03.529Z,97507.88
2023-05-08T04:38:36.497Z,97508.88
2023-05-08T04:41:05.870Z,97510.34
2023-05-08T04:43:34.442Z,97515.78
2023-05-08T04:46:02.730Z,97516.28
2023-05-08T04:48:33.156Z,97512.44
2023-05-08T04:51:01.149Z,97509.88
2023-05-08T04:53:29.097Z,97517.06
2023-05-08T04:55:57.888Z,97515.13
2023-05-08T04:58:25.795Z,97504.41
2023-05-08T05:00:54.202Z,97507.19
2023-05-08T05:03:22.822Z,97502.50
2023-05-08T05:05:57.707Z,97500.69
2023-05-08T05:08:25.786Z,97499.38
2023-05-08T05:10:54.573Z,97495.00
2023-05-08T05:13:22.427Z,97497.56
2023-05-08T05:15:54.438Z,97494.00
2023-05-08T05:18:23.674Z,97491.13
2023-05-08T05:20:53.296Z,97483.72
2023-05-08T05:23:21.532Z,97485.22
2023-05-08T05:25:49.314Z,97480.88
2023-05-08T05:28:17.341Z,97485.38
2023-05-08T05:30:47.847Z,97476.50
2023-05-08T05:33:16.598Z,97486.19
2023-05-08T05:35:45.094Z,97486.78
2023-05-08T05:38:13.199Z,97480.13
2023-05-08T05:40:41.263Z,97473.38
2023-05-08T05:43:09.198Z,97475.00
2023-05-08T05:45:37.099Z,97479.03
2023-05-08T05:48:05.743Z,97475.19
2023-05-08T05:50:34.355Z,97464.28
2023-05-08T05:53:02.237Z,97459.59
2023-05-08T05:55:30.166Z,97459.59
2023-05-08T05:57:59.277Z,97471.81
2023-05-08T06:00:27.668Z,97472.00
2023-05-08T06:02:57.663Z,97463.72
2023-05-08T06:05:25.646Z,97467.63
2023-05-08T06:07:53.430Z,97464.31
2023-05-08T06:10:21.215Z,97466.44
2023-05-08T06:12:49.007Z,97463.88
2023-05-08T06:15:17.120Z,97459.69
2023-05-08T06:17:46.878Z,97456.28
2023-05-08T06:20:14.700Z,97462.31
2023-05-08T06:22:42.575Z,97463.34
2023-05-08T06:25:11.004Z,97457.09
2023-05-08T06:27:38.970Z,97461.78
2023-05-08T06:30:10.622Z,97452.34
2023-05-08T06:32:38.561Z,97446.00
2023-05-08T06:35:06.906Z,97451.16
2023-05-08T06:37:34.724Z,97451.34
2023-05-08T06:40:14.253Z,97451.41
2023-05-08T06:42:42.125Z,97444.22
2023-05-08T06:45:10.074Z,97447.22
2023-05-08T06:47:38.164Z,97444.00
2023-05-08T06:50:06.763Z,97454.78
2023-05-08T06:52:34.607Z,97445.69
2023-05-08T06:55:02.343Z,97448.78
2023-05-08T06:57:30.483Z,97443.59
2023-05-08T06:59:59.585Z,97442.31
2023-05-08T07:02:27.412Z,97445.31
2023-05-08T07:04:55.201Z,97446.94
2023-05-08T07:07:23.028Z,97447.38
2023-05-08T07:09:50.780Z,97433.44
2023-05-08T07:12:18.851Z,97438.66
2023-05-08T07:14:46.550Z,97435.09
2023-05-08T07:17:14.312Z,97441.97
2023-05-08T07:19:42.047Z,97437.88
2023-05-08T07:22:09.979Z,97442.47
2023-05-08T07:24:37.746Z,97443.59
2023-05-08T07:27:05.524Z,97442.19
2023-05-08T07:29:33.273Z,97442.06
2023-05-08T07:32:01.214Z,97435.16
2023-05-08T07:34:29.216Z,97434.03
2023-05-08T07:36:56.922Z,97438.19
2023-05-08T07:39:24.724Z,97435.72
2023-05-08T07:41:52.510Z,97441.75
2023-05-08T07:44:20.312Z,97428.44
2023-05-08T07:46:48.048Z,97434.19
2023-05-08T07:49:15.835Z,97433.72
2023-05-08T07:51:43.549Z,97441.88
2023-05-08T07:54:11.310Z,97428.75
2023-05-08T07:56:38.993Z,97421.59
2023-05-08T07:59:06.789Z,97439.91
2023-05-08T08:01:34.544Z,97430.88
2023-05-08T08:04:02.448Z,97430.94
2023-05-08T08:06:30.553Z,97430.72
2023-05-08T08:08:58.360Z,97435.03
2023-05-08T08:11:26.051Z,97436.66
2023-05-08T08:13:53.817Z,97428.81
2023-05-08T08:16:21.716Z,97423.06
2023-05-08T08:18:49.567Z,97433.84
2023-05-08T08:21:17.341Z,97427.84
2023-05-08T08:23:45.131Z,97416.88
2023-05-08T08:26:12.847Z,97420.75
2023-05-08T08:28:40.721Z,97421.31
2023-05-08T08:31:08.443Z,97420.06
2023-05-08T08:33:36.437Z,97430.69
2023-05-08T08:36:04.250Z,97423.75
2023-05-08T08:38:32.226Z,97414.63
2023-05-08T08:40:59.919Z,97417.06
2023-05-08T08:43:28.598Z,97410.38
2023-05-08T08:45:56.366Z,97413.94
2023-05-08T08:48:24.169Z,97406.53
2023-05-08T08:50:51.945Z,97397.09
2023-05-08T08:53:27.278Z,97396.38
2023-05-08T08:55:57.025Z,97396.25
2023-05-08T08:58:43.808Z,97396.88
2023-05-08T09:01:15.148Z,97395.00
2023-05-08T09:03:43.068Z,97394.56
2023-05-08T09:06:10.894Z,97389.03
2023-05-08T09:08:38.670Z,97390.22
2023-05-08T09:11:06.678Z,97383.91
2023-05-08T09:13:34.517Z,97384.19
2023-05-08T09:16:02.316Z,97387.28
2023-05-08T09:18:30.138Z,97376.59
2023-05-08T09:20:58.331Z,97380.53
2023-05-08T09:23:26.369Z,97385.84
2023-05-08T09:25:54.060Z,97390.53
2023-05-08T09:28:23.065Z,97399.97
2023-05-08T09:30:54.906Z,97400.75
2023-05-08T09:33:26.949Z,97417.38
2023-05-08T09:35:57.757Z,97416.75
2023-05-08T09:38:32.461Z,97427.91
2023-05-08T09:41:12.603Z,97431.38
2023-05-08T09:43:40.714Z,97439.22
2023-05-08T09:46:22.552Z,97445.38
2023-05-08T09:48:51.022Z,97444.66
2023-05-08T09:51:18.939Z,97443.88
2023-05-08T09:53:46.695Z,97452.88
2023-05-08T09:56:14.524Z,97452.19
2023-05-08T09:58:43.223Z,97462.13
2023-05-08T10:01:29.811Z,97457.50
2023-05-08T10:03:57.751Z,97456.44
2023-05-08T10:06:25.698Z,97448.94
2023-05-08T10:09:13.310Z,97457.13
2023-05-08T10:11:42.521Z,97448.81
2023-05-08T10:14:10.302Z,97454.88
2023-05-08T10:16:41.916Z,97459.91
2023-05-08T10:19:13.533Z,97467.78
2023-05-08T10:21:44.133Z,97466.94
2023-05-08T10:24:19.685Z,97475.66
2023-05-08T10:27:20.676Z,97460.13
2023-05-08T10:29:55.021Z,97470.84
2023-05-08T10:32:24.287Z,97477.50
2023-05-08T10:35:01.642Z,97477.09
2023-05-08T10:37:29.818Z,97472.19
2023-05-08T10:40:00.666Z,97481.13
2023-05-08T10:42:28.504Z,97468.56
2023-05-08T10:44:56.295Z,97477.56
2023-05-08T10:47:48.934Z,97484.16
2023-05-08T10:50:23.424Z,97468.47
2023-05-08T10:52:59.866Z,97475.50
2023-05-08T10:55:32.295Z,97485.94
2023-05-08T10:58:11.508Z,97485.34
2023-05-08T11:00:59.569Z,97493.88
2023-05-08T11:03:32.095Z,97481.63
2023-05-08T11:06:01.431Z,97483.47
2023-05-08T11:08:30.768Z,97478.22
2023-05-08T11:11:01.892Z,97498.22
2023-05-08T11:13:34.801Z,97487.56
2023-05-08T11:16:02.737Z,97483.31
2023-05-08T11:18:45.616Z,97473.16
2023-05-08T11:21:21.801Z,97485.00
2023-05-08T11:23:56.804Z,97479.31
2023-05-08T11:26:39.272Z,97496.41
2023-05-08T11:29:16.534Z,97489.78
2023-05-08T11:31:50.927Z,97493.75
2023-05-08T11:34:43.568Z,97494.09
2023-05-08T11:37:12.301Z,97485.19
2023-05-08T11:39:39.979Z,97490.91
2023-05-08T11:42:27.047Z,97490.78
2023-05-08T11:45:10.596Z,97492.03
2023-05-08T11:47:42.618Z,97489.16
2023-05-08T11:50:11.566Z,97487.13
2023-05-08T11:52:40.589Z,97477.13
2023-05-08T11:55:10.174Z,97480.44
2023-05-08T11:57:38.164Z,97472.94
2023-05-08T12:00:09.977Z,97473.38
2023-05-08T12:02:42.571Z,97472.09
2023-05-08T12:05:11.242Z,97471.53
2023-05-08T12:07:46.773Z,97469.88
2023-05-08T12:10:15.912Z,97484.13
2023-05-08T12:12:44.462Z,97482.63
2023-05-08T12:15:13.698Z,97481.78
2023-05-08T12:17:42.086Z,97481.06
2023-05-08T12:20:17.133Z,97486.09
2023-05-08T12:22:52.246Z,97493.09
2023-05-08T12:25:20.065Z,97490.69
2023-05-08T12:27:47.794Z,97498.59
2023-05-08T12:30:16.149Z,97492.44
2023-05-08T12:32:44.540Z,97497.59
2023-05-08T12:35:12.694Z,97495.06
2023-05-08T12:37:40.566Z,97506.03
2023-05-08T12:40:08.876Z,97500.81
2023-05-08T12:42:46.782Z,97512.91
2023-05-08T12:45:21.497Z,97516.84
2023-05-08T12:47:49.719Z,97525.63
2023-05-08T12:50:18.223Z,97534.16
2023-05-08T12:52:46.021Z,97537.47
2023-05-08T12:55:34.441Z,97536.94
2023-05-08T12:58:11.968Z,97542.59
2023-05-08T13:00:46.251Z,97540.59
2023-05-08T13:03:29.850Z,97548.94
2023-05-08T13:05:58.639Z,97557.56
2023-05-08T13:08:30.915Z,97558.47
2023-05-08T13:10:58.673Z,97569.25
2023-05-08T13:13:28.324Z,97572.63
2023-05-08T13:15:56.248Z,97574.56
2023-05-08T13:18:25.860Z,97567.78
2023-05-08T13:20:56.468Z,97574.56
2023-05-08T13:23:24.220Z,97574.81
2023-05-08T13:25:51.913Z,97578.22
2023-05-08T13:28:19.662Z,97574.53
2023-05-08T13:30:47.347Z,97585.53
2023-05-08T13:33:15.118Z,97588.88
2023-05-08T13:35:42.812Z,97594.88
2023-05-08T13:38:10.561Z,97583.97
2023-05-08T13:40:38.318Z,97592.81
2023-05-08T13:43:06.056Z,97581.84
2023-05-08T13:45:33.843Z,97589.97
2023-05-08T13:48:01.692Z,97585.53
2023-05-08T13:50:29.450Z,97600.66
2023-05-08T13:52:57.220Z,97606.91
2023-05-08T13:55:24.942Z,97602.00
2023-05-08T13:57:52.663Z,97608.53
2023-05-08T14:00:20.469Z,97598.06
2023-05-08T14:02:50.709Z,97607.22
2023-05-08T14:05:20.180Z,97613.22
2023-05-08T14:07:48.339Z,97618.69
2023-05-08T14:10:17.241Z,97612.44
2023-05-08T14:12:45.765Z,97635.69
2023-05-08T14:15:13.708Z,97644.03
2023-05-08T14:17:42.420Z,97649.78
2023-05-08T14:20:12.063Z,97643.50
2023-05-08T14:22:40.257Z,97651.31
2023-05-08T14:25:08.790Z,97656.47
2023-05-08T14:27:36.617Z,97651.84
2023-05-08T14:30:04.903Z,97649.25
2023-05-08T14:32:32.781Z,97648.16
2023-05-08T14:35:00.604Z,97652.84
2023-05-08T14:37:28.276Z,97642.91
2023-05-08T14:39:57.750Z,97651.28
2023-05-08T14:42:25.411Z,97654.41
2023-05-08T14:44:53.207Z,97656.53
2023-05-08T14:47:20.981Z,97648.66
2023-05-08T14:49:48.798Z,97655.47
2023-05-08T14:52:16.616Z,97652.63
2023-05-08T14:54:44.563Z,97656.78
2023-05-08T14:57:12.423Z,97666.19
2023-05-08T15:02:28.003Z,97655.97
2023-05-08T15:04:55.804Z,97641.22
2023-05-08T15:07:23.534Z,97642.06
2023-05-08T15:09:51.301Z,97637.91
2023-05-08T15:12:19.043Z,97637.19
2023-05-08T15:14:46.947Z,97638.22
2023-05-08T15:17:14.620Z,97644.97
2023-05-08T15:19:42.651Z,97650.16
2023-05-08T15:22:10.373Z,97646.53
2023-05-08T15:24:38.125Z,97646.50
2023-05-08T15:27:05.990Z,97636.09
2023-05-08T15:29:33.762Z,97632.88
2023-05-08T15:32:01.556Z,97645.72
2023-05-08T15:34:32.642Z,97645.94
2023-05-08T15:37:00.834Z,97634.50
2023-05-08T15:39:28.549Z,97639.22
2023-05-08T15:41:56.261Z,97644.69
2023-05-08T15:44:26.577Z,97637.06
2023-05-08T15:46:56.611Z,97644.63
2023-05-08T15:49:25.984Z,97646.38
2023-05-08T15:51:53.759Z,97644.75
2023-05-08T15:54:21.791Z,97652.66
2023-05-08T15:56:49.458Z,97642.75
2023-05-08T15:59:17.254Z,97637.44
2023-05-08T16:01:46.909Z,97638.50
2023-05-08T16:04:14.937Z,97649.66
2023-05-08T16:06:42.696Z,97638.41
2023-05-08T16:09:10.419Z,97639.22
2023-05-08T16:11:38.188Z,97632.19
2023-05-08T16:14:06.025Z,97648.00
2023-05-08T16:16:33.869Z,97646.53
2023-05-08T16:19:01.635Z,97636.59
2023-05-08T16:21:29.396Z,97637.44
2023-05-08T16:23:57.847Z,97628.69
2023-05-08T16:26:26.355Z,97637.59
2023-05-08T16:28:54.061Z,97641.31
2023-05-08T16:31:21.866Z,97643.22
2023-05-08T16:33:49.589Z,97635.75
2023-05-08T16:36:17.287Z,97643.16
2023-05-08T16:38:45.000Z,97644.72
2023-05-08T16:41:13.419Z,97643.75
2023-05-08T16:43:41.131Z,97644.94
2023-05-08T16:46:08.979Z,97634.06
2023-05-08T16:48:36.688Z,97638.81
2023-05-08T16:51:04.426Z,97635.66
2023-05-08T16:53:32.702Z,97647.75
2023-05-08T16:56:01.736Z,97645.81
2023-05-08T16:58:29.446Z,97657.34
2023-05-08T17:00:57.248Z,97649.41
2023-05-08T17:03:25.061Z,97654.31
2023-05-08T17:05:53.321Z,97656.84
2023-05-08T17:08:21.136Z,97656.34
2023-05-08T17:10:48.902Z,97652.78
2023-05-08T17:13:16.591Z,97660.44
2023-05-08T17:15:44.382Z,97665.78
2023-05-08T17:18:12.060Z,97666.31
2023-05-08T17:20:40.765Z,97665.91
2023-05-08T17:23:09.308Z,97661.38
2023-05-08T17:25:37.082Z,97668.19
2023-05-08T17:28:04.871Z,97677.88
2023-05-08T17:30:32.630Z,97679.75
2023-05-08T17:33:00.569Z,97693.16
2023-05-08T17:35:28.394Z,97696.31
2023-05-08T17:37:56.073Z,97694.25
2023-05-08T17:40:25.782Z,97696.94
2023-05-08T17:42:53.525Z,97705.25
2023-05-08T17:45:21.260Z,97711.81
2023-05-08T17:47:48.995Z,97713.00
2023-05-08T17:50:16.748Z,97716.84
2023-05-08T17:52:44.488Z,97706.59
2023-05-08T17:55:12.244Z,97714.13
2023-05-08T17:57:39.906Z,97717.25
2023-05-08T18:00:08.297Z,97712.41
2023-05-08T18:02:40.444Z,97721.16
2023-05-08T18:05:08.784Z,97729.81
2023-05-08T18:07:36.517Z,97732.75
2023-05-08T18:10:04.694Z,97728.47
2023-05-08T18:12:32.649Z,97743.13
2023-05-08T18:15:02.185Z,97734.59
2023-05-08T18:17:30.122Z,97749.06
2023-05-08T18:19:57.934Z,97750.19
2023-05-08T18:22:26.255Z,97742.59
2023-05-08T18:24:56.995Z,97746.88
2023-05-08T18:27:26.140Z,97741.00
2023-05-08T18:29:53.901Z,97751.41
2023-05-08T18:32:21.741Z,97761.22
2023-05-08T18:34:49.440Z,97759.47
2023-05-08T18:37:17.129Z,97762.47
2023-05-08T18:39:44.795Z,97773.22
2023-05-08T18:42:12.589Z,97776.09
2023-05-08T18:44:40.275Z,97775.78
2023-05-08T18:47:08.114Z,97787.13
2023-05-08T18:49:35.963Z,97784.34
2023-05-08T18:52:03.852Z,97787.19
2023-05-08T18:54:31.578Z,97783.56
2023-05-08T18:56:59.338Z,97783.50
2023-05-08T18:59:27.006Z,97778.72
2023-05-08T19:01:54.842Z,97779.88
2023-05-08T19:04:22.559Z,97781.13
2023-05-08T19:06:50.306Z,97790.56
2023-05-08T19:09:18.068Z,97781.13
2023-05-08T19:11:45.850Z,97785.38
2023-05-08T19:14:13.567Z,97790.53
2023-05-08T19:16:41.306Z,97789.13
2023-05-08T19:19:09.015Z,97789.72
2023-05-08T19:21:36.772Z,97787.69
2023-05-08T19:24:04.704Z,97789.88
2023-05-08T19:26:32.429Z,97792.34
2023-05-08T19:29:00.117Z,97802.91
2023-05-08T19:31:27.941Z,97801.94
2023-05-08T19:33:57.304Z,97807.28
2023-05-08T19:36:25.153Z,97804.44
2023-05-08T19:38:52.841Z,97807.88
2023-05-08T19:41:20.694Z,97803.84
2023-05-08T19:43:48.496Z,97802.31
2023-05-08T19:46:16.352Z,97810.38
2023-05-08T19:48:44.112Z,97804.63
2023-05-08T19:51:12.530Z,97804.09
2023-05-08T19:53:40.288Z,97802.00
2023-05-08T19:56:08.100Z,97802.75
2023-05-08T19:58:35.783Z,97807.22
2023-05-08T20:01:03.588Z,97805.47
2023-05-08T20:03:31.448Z,97807.28
2023-05-08T20:05:59.236Z,97804.63
2023-05-08T20:08:27.008Z,97793.88
2023-05-08T20:10:54.737Z,97798.31
2023-05-08T20:13:22.501Z,97810.97
2023-05-08T20:15:50.493Z,97805.00
2023-05-08T20:18:18.203Z,97808.94
2023-05-08T20:20:46.184Z,97810.25
2023-05-08T20:23:13.894Z,97809.31
2023-05-08T20:25:41.764Z,97809.34
2023-05-08T20:28:09.465Z,97804.84
2023-05-08T20:30:37.203Z,97794.06
2023-05-08T20:33:05.426Z,97800.69
2023-05-08T20:35:33.345Z,97789.19
2023-05-08T20:38:01.184Z,97786.28
2023-05-08T20:40:28.884Z,97787.31
2023-05-08T20:42:56.603Z,97780.72
2023-05-08T20:45:24.752Z,97783.88
2023-05-08T20:47:52.495Z,97785.75
2023-05-08T20:50:20.270Z,97799.91
2023-05-08T20:52:48.053Z,97794.25
2023-05-08T20:55:15.997Z,97791.47
2023-05-08T20:57:44.089Z,97794.31
2023-05-08T21:00:12.390Z,97791.06
2023-05-08T21:02:42.101Z,97789.53
2023-05-08T21:05:10.117Z,97787.34
2023-05-08T21:07:37.993Z,97785.31
2023-05-08T21:10:06.073Z,97789.84
2023-05-08T21:12:33.889Z,97782.34
2023-05-08T21:15:01.609Z,97788.91
2023-05-08T21:17:29.406Z,97777.38
2023-05-08T21:19:57.141Z,97777.13
2023-05-08T21:22:24.919Z,97776.75
2023-05-08T21:24:52.572Z,97763.94
2023-05-08T21:27:20.372Z,97761.63
2023-05-08T21:29:48.044Z,97762.91
2023-05-08T21:32:15.833Z,97760.69
2023-05-08T21:34:43.530Z,97761.72
2023-05-08T21:37:11.360Z,97764.50
2023-05-08T21:39:39.039Z,97758.09
2023-05-08T21:42:06.822Z,97766.69
2023-05-08T21:44:34.463Z,97773.75
2023-05-08T21:47:02.348Z,97768.78
2023-05-08T21:49:30.002Z,97777.72
2023-05-08T21:51:57.984Z,97775.47
2023-05-08T21:54:25.690Z,97769.25
2023-05-08T21:56:53.435Z,97780.09
2023-05-08T21:59:21.145Z,97775.44
2023-05-08T22:01:48.915Z,97777.97
2023-05-08T22:04:16.606Z,97781.25
2023-05-08T22:06:44.606Z,97779.69
2023-05-08T22:09:12.241Z,97778.50
2023-05-08T22:11:39.998Z,97775.66
2023-05-08T22:14:07.670Z,97772.88
2023-05-08T22:16:35.523Z,97770.28
2023-05-08T22:19:03.277Z,97767.09
2023-05-08T22:21:32.060Z,97774.50
2023-05-08T22:23:59.726Z,97777.72
2023-05-08T22:26:28.829Z,97784.22
2023-05-08T22:28:56.606Z,97786.34
2023-05-08T22:31:24.311Z,97789.03
2023-05-08T22:33:52.129Z,97783.75
2023-05-08T22:36:19.887Z,97788.63
2023-05-08T22:38:47.664Z,97792.56
2023-05-08T22:41:15.379Z,97798.22
2023-05-08T22:43:43.193Z,97795.44
2023-05-08T22:46:11.479Z,97794.44
2023-05-08T22:48:39.433Z,97793.28
2023-05-08T22:51:07.477Z,97787.19
2023-05-08T22:53:35.181Z,97798.91
2023-05-08T22:56:02.899Z,97800.09
2023-05-08T22:58:30.696Z,97799.31
2023-05-08T23:00:59.777Z,97799.97
2023-05-08T23:03:27.676Z,97799.50
2023-05-08T23:05:55.406Z,97801.31
2023-05-08T23:08:23.144Z,97802.13
2023-05-08T23:10:50.854Z,97798.13
2023-05-08T23:13:18.614Z,97788.56
2023-05-08T23:15:46.328Z,97788.31
2023-05-08T23:18:14.118Z,97796.06
2023-05-08T23:20:41.815Z,97791.09
2023-05-08T23:23:09.573Z,97788.97
2023-05-08T23:25:37.269Z,97789.25
2023-05-08T23:28:04.999Z,97798.19
2023-05-08T23:30:32.660Z,97801.19
2023-05-08T23:33:00.661Z,97784.63
2023-05-08T23:35:28.490Z,97783.03
2023-05-08T23:37:56.563Z,97783.31
2023-05-08T23:40:24.236Z,97787.16
2023-05-08T23:42:52.217Z,97784.00
2023-05-08T23:45:19.896Z,97777.56
2023-05-08T23:47:47.697Z,97781.00
2023-05-08T23:50:15.482Z,97771.34
2023-05-08T23:52:43.223Z,97778.50
2023-05-08T23:55:11.107Z,97770.66
2023-05-08T23:57:38.951Z,97764.69
